Time;durP1;ratioP1;P1;durP2;ratioP2;P2;SDS_P1;SDS_P2;PMS_P1;PMS_P2;Temp;Humidity;BMP_temperature;BMP_pressure;BME280_temperature;BME280_humidity;BME280_pressure;Samples;Min_cycle;Max_cycle;Signal;HPM_P1;HPM_P2
2023/02/15 00:01:21;;;;;;;;;;;;;;;15.58;40.88;102008.41;5079863;28;1090;-46
2023/02/15 00:03:50;;;;;;;;;;;;;;;15.54;41.06;102023.66;5079597;28;1090;-43
2023/02/15 00:06:15;;;;;;;;;;;;;;;17.14;37.77;102021.63;5079606;28;1901;-46
2023/02/15 00:08:41;;;;;;;;;;;;;;;16.84;38.09;102023.53;5080048;28;1031;-46
2023/02/15 00:11:07;;;;;;;;;;;;;;;16.09;40.07;102028.03;5079648;28;1157;-44
2023/02/15 00:13:32;;;;;;;;;;;;;;;15.73;40.81;102027.13;5079400;28;892;-43
2023/02/15 00:16:04;;;;;;;;;;;;;;;15.60;41.05;102025.47;5079419;28;1126;-47
2023/02/15 00:18:30;;;;;;;;;;;;;;;17.21;37.84;102020.41;5079120;28;1209;-42
2023/02/15 00:20:55;;;;;;;;;;;;;;;16.71;38.42;102023.84;5079485;28;1134;-48
2023/02/15 00:23:21;;;;;;;;;;;;;;;16.04;40.04;102023.22;5078161;28;1183;-44
2023/02/15 00:25:46;;;;;;;;;;;;;;;15.74;40.66;102015.94;5078970;28;1147;-47
2023/02/15 00:28:12;;;;;;;;;;;;;;;15.48;41.15;102024.59;5079208;28;1906;-45
2023/02/15 00:30:37;;;;;;;;;;;;;;;16.16;39.83;102025.13;5079395;28;1054;-44
2023/02/15 00:33:02;;;;;;;;;;;;;;;17.41;37.33;102022.69;5079479;28;1101;-42
2023/02/15 00:35:28;;;;;;;;;;;;;;;16.45;39.17;102016.97;5078868;28;1126;-42
2023/02/15 00:37:53;;;;;;;;;;;;;;;15.90;40.45;102021.81;5078839;28;909;-44
2023/02/15 00:40:19;;;;;;;;;;;;;;;15.63;40.96;102013.19;5078851;28;1064;-46
2023/02/15 00:42:44;;;;;;;;;;;;;;;15.44;41.48;102026.16;5078770;28;1103;-43
2023/02/15 00:45:10;;;;;;;;;;;;;;;16.36;39.70;102022.84;5079473;28;1174;-45
2023/02/15 00:47:35;;;;;;;;;;;;;;;17.37;37.20;102016.00;5077908;28;1972;-48
2023/02/15 00:50:02;;;;;;;;;;;;;;;16.25;39.33;102020.94;5078609;28;1183;-46
2023/02/15 00:52:28;;;;;;;;;;;;;;;15.74;40.60;102015.94;5111598;28;1112;-42
2023/02/15 00:54:55;;;;;;;;;;;;;;;15.56;41.11;102013.31;5077564;28;1146;-46
2023/02/15 00:57:20;;;;;;;;;;;;;;;16.42;39.25;101999.94;5078888;28;1214;-42
2023/02/15 00:59:45;;;;;;;;;;;;;;;17.54;36.86;102006.94;5078855;28;1141;-44
2023/02/15 01:02:11;;;;;;;;;;;;;;;16.51;38.91;102005.88;5078770;28;943;-46
2023/02/15 01:04:36;;;;;;;;;;;;;;;15.96;40.02;102011.78;5078659;28;1086;-45
2023/02/15 01:07:03;;;;;;;;;;;;;;;15.67;40.97;101997.91;5078720;28;1898;-43
2023/02/15 01:09:32;;;;;;;;;;;;;;;15.42;41.44;101996.22;5077479;28;1094;-43
2023/02/15 01:11:57;;;;;;;;;;;;;;;16.86;38.33;101993.91;5078177;28;1221;-41
2023/02/15 01:14:25;;;;;;;;;;;;;;;16.75;38.61;101995.63;5078347;28;1031;-47
2023/02/15 01:16:50;;;;;;;;;;;;;;;16.00;40.02;102011.06;5078706;28;1066;-42
2023/02/15 01:19:16;;;;;;;;;;;;;;;15.66;40.98;102007.22;5078117;28;1373;-45
2023/02/15 01:21:41;;;;;;;;;;;;;;;15.42;41.29;102015.41;5078461;28;1109;-45
2023/02/15 01:24:12;;;;;;;;;;;;;;;16.63;38.90;102015.97;5078410;28;1170;-41
2023/02/15 01:26:38;;;;;;;;;;;;;;;17.32;37.19;102006.84;5077656;28;1972;-44
2023/02/15 01:29:04;;;;;;;;;;;;;;;16.24;39.55;102000.06;5077156;28;1219;-45
2023/02/15 01:31:30;;;;;;;;;;;;;;;15.81;40.59;102004.03;5078453;28;1189;-46
2023/02/15 01:33:55;;;;;;;;;;;;;;;15.51;41.27;102004.94;5077504;28;1043;-44
2023/02/15 01:36:21;;;;;;;;;;;;;;;16.66;38.76;101999.00;5078165;28;1019;-45
2023/02/15 01:38:46;;;;;;;;;;;;;;;17.19;37.74;102016.25;5076569;28;1314;-47
2023/02/15 01:41:24;;;;;;;;;;;;;;;16.14;39.94;102024.53;5078058;28;1193;-45
2023/02/15 01:43:59;;;;;;;;;;;;;;;15.72;40.69;102007.13;5076539;28;1278;-42
2023/02/15 01:46:30;;;;;;;;;;;;;;;15.47;41.09;102009.22;5077763;28;1901;-46
2023/02/15 01:48:57;;;;;;;;;;;;;;;16.99;38.11;101992.81;5077674;28;1163;-46
2023/02/15 01:51:23;;;;;;;;;;;;;;;16.98;38.15;101993.06;5076272;28;1031;-47
2023/02/15 01:53:51;;;;;;;;;;;;;;;16.08;40.01;101988.75;5076139;28;1140;-47
2023/02/15 01:56:17;;;;;;;;;;;;;;;15.78;40.66;101996.25;5076188;28;1040;-47
2023/02/15 01:58:47;;;;;;;;;;;;;;;15.91;40.53;101994.13;5076716;28;1201;-46
2023/02/15 02:01:13;;;;;;;;;;;;;;;17.37;37.53;101999.50;5110312;28;1192;-46
2023/02/15 02:03:38;;;;;;;;;;;;;;;16.36;39.22;102000.88;5109941;28;1003;-46
2023/02/15 02:06:04;;;;;;;;;;;;;;;15.82;40.55;102005.72;5075531;28;1897;-42
2023/02/15 02:08:29;;;;;;;;;;;;;;;15.49;41.08;102009.84;5077906;28;1117;-45
2023/02/15 02:10:54;;;;;;;;;;;;;;;16.45;39.44;102015.06;5076078;28;1157;-46
2023/02/15 02:13:20;;;;;;;;;;;;;;;17.13;37.79;102007.06;5075815;28;1428;-44
2023/02/15 02:15:48;;;;;;;;;;;;;;;16.07;39.74;102009.06;5089566;28;1420;-45
2023/02/15 02:18:33;;;;;;;;;;;;;;;15.65;40.72;102006.38;5077128;28;1551;-42
2023/02/15 02:21:10;;;;;;;;;;;;;;;15.38;41.59;102023.25;5076233;28;1063;-40
2023/02/15 02:23:51;;;;;;;;;;;;;;;16.82;38.63;102009.22;5076934;28;1066;-42
2023/02/15 02:26:25;;;;;;;;;;;;;;;16.92;37.96;102003.94;5075298;28;1894;-44
2023/02/15 02:28:54;;;;;;;;;;;;;;;16.06;40.14;102007.38;5075901;28;1419;-47
2023/02/15 02:31:41;;;;;;;;;;;;;;;15.63;40.93;102011.28;5077196;28;1054;-40
2023/02/15 02:34:10;;;;;;;;;;;;;;;15.33;41.67;102020.41;5065511;28;1151;-43
2023/02/15 02:36:41;;;;;;;;;;;;;;;16.65;38.98;102019.28;5075354;28;1023;-46
2023/02/15 02:39:11;;;;;;;;;;;;;;;17.20;37.46;102009.66;5076349;28;970;-45
2023/02/15 02:41:39;;;;;;;;;;;;;;;16.14;39.55;102021.81;5076687;28;1062;-45
2023/02/15 02:44:05;;;;;;;;;;;;;;;15.67;40.93;102008.88;5075185;28;1090;-43
2023/02/15 02:46:51;;;;;;;;;;;;;;;15.38;41.38;102034.22;5074992;28;1986;-45
2023/02/15 02:49:16;;;;;;;;;;;;;;;17.07;38.16;102032.81;5075706;28;1214;-42
2023/02/15 02:51:42;;;;;;;;;;;;;;;16.83;38.27;102021.03;5090491;28;1066;-45
2023/02/15 02:54:08;;;;;;;;;;;;;;;16.00;40.10;102029.44;5076626;28;1194;-43
2023/02/15 02:56:42;;;;;;;;;;;;;;;15.66;40.64;102035.47;5075045;28;1083;-44
2023/02/15 02:59:18;;;;;;;;;;;;;;;15.48;41.26;102036.41;5075970;28;1115;-48
2023/02/15 03:01:49;;;;;;;;;;;;;;;17.17;37.90;102029.41;5075108;28;1060;-46
2023/02/15 03:04:15;;;;;;;;;;;;;;;16.28;39.54;102031.44;5074968;28;1032;-44
2023/02/15 03:06:47;;;;;;;;;;;;;;;15.77;40.71;102035.72;5092149;28;1984;-47
2023/02/15 03:09:21;;;;;;;;;;;;;;;15.40;41.27;102043.06;5058624;28;1157;-47
2023/02/15 03:11:46;;;;;;;;;;;;;;;16.63;38.85;102044.25;5059544;28;1245;-44
2023/02/15 03:14:14;;;;;;;;;;;;;;;17.48;36.98;102038.19;5074991;28;1202;-46
2023/02/15 03:16:40;;;;;;;;;;;;;;;16.30;39.32;102042.19;5074849;28;1175;-43
2023/02/15 03:19:06;;;;;;;;;;;;;;;15.79;40.43;102039.94;5108650;28;1157;-44
2023/02/15 03:21:36;;;;;;;;;;;;;;;15.52;41.26;102051.31;5058325;28;1139;-43
2023/02/15 03:24:16;;;;;;;;;;;;;;;15.29;41.68;102045.75;5091578;28;1112;-48
2023/02/15 03:26:45;;;;;;;;;;;;;;;16.79;38.67;102041.81;5091184;28;1910;-44
2023/02/15 03:29:11;;;;;;;;;;;;;;;16.65;38.60;102044.00;5061936;28;1205;-44
2023/02/15 03:31:37;;;;;;;;;;;;;;;15.82;40.47;102046.84;5058370;28;1117;-45
2023/02/15 03:34:03;;;;;;;;;;;;;;;15.52;41.31;102056.78;5062996;28;1150;-44
2023/02/15 03:36:32;;;;;;;;;;;;;;;15.46;41.52;102059.63;5075132;28;1170;-46
2023/02/15 03:39:00;;;;;;;;;;;;;;;17.07;38.01;102049.28;5067431;28;872;-47
2023/02/15 03:41:26;;;;;;;;;;;;;;;16.50;38.92;102044.53;5076191;28;1086;-42
2023/02/15 03:43:53;;;;;;;;;;;;;;;15.80;40.51;102049.81;5075201;28;1171;-47
2023/02/15 03:46:27;;;;;;;;;;;;;;;15.50;41.09;102058.94;5075855;28;1905;-48
2023/02/15 03:48:53;;;;;;;;;;;;;;;16.42;39.29;102053.97;5075033;28;1083;-46
2023/02/15 03:51:36;;;;;;;;;;;;;;;17.42;37.16;102051.03;5074830;28;1246;-44
2023/02/15 03:54:02;;;;;;;;;;;;;;;16.22;39.62;102059.84;5074967;28;1158;-44
2023/02/15 03:56:27;;;;;;;;;;;;;;;15.78;40.39;102067.56;5075905;28;1139;-45
2023/02/15 04:01:58;;;;;;;;;;;;;;;16.31;39.50;102061.16;5075654;28;1123;-46
2023/02/15 04:04:37;;;;;;;;;;;;;;;17.14;37.80;102060.13;5054775;28;1163;-46
2023/02/15 04:07:03;;;;;;;;;;;;;;;16.05;40.02;102059.75;5066414;28;1914;-46
2023/02/15 04:12:12;;;;;;;;;;;;;;;15.35;41.71;102062.09;5075675;28;1147;-45
2023/02/15 04:17:21;;;;;;;;;;;;;;;17.35;37.46;102064.94;5080633;28;2137;-44
2023/02/15 04:25:14;;;;;;;;;;;;;;;16.07;40.28;102071.31;5085825;28;2214;-44
2023/02/15 04:27:41;;;;;;;;;;;;;;;17.41;37.39;102074.09;5079219;28;2201;-46
2023/02/15 04:30:07;;;;;;;;;;;;;;;16.45;39.22;102080.94;5089700;28;994;-48
2023/02/15 04:32:32;;;;;;;;;;;;;;;15.92;40.13;102085.47;5078671;28;1130;-46
2023/02/15 04:34:58;;;;;;;;;;;;;;;15.59;41.08;102077.78;5070190;28;1030;-44
2023/02/15 04:37:23;;;;;;;;;;;;;;;16.24;39.80;102080.50;5075093;28;1020;-43
2023/02/15 04:39:49;;;;;;;;;;;;;;;17.45;36.95;102083.53;5078303;28;943;-43
2023/02/15 04:42:15;;;;;;;;;;;;;;;16.38;39.03;102093.97;5078642;28;1678;-44
2023/02/15 04:44:40;;;;;;;;;;;;;;;15.83;40.40;102092.41;5078683;28;1030;-45
2023/02/15 04:47:06;;;;;;;;;;;;;;;15.53;41.08;102094.09;5078313;28;1984;-45
2023/02/15 04:49:31;;;;;;;;;;;;;;;15.44;41.43;102097.41;5078197;28;1147;-43
2023/02/15 04:51:57;;;;;;;;;;;;;;;17.01;38.18;102100.56;5078566;28;1023;-46
2023/02/15 04:54:22;;;;;;;;;;;;;;;16.87;37.92;102110.13;5078777;28;1110;-52
2023/02/15 04:56:47;;;;;;;;;;;;;;;15.94;40.14;102105.31;5078420;28;1086;-51
2023/02/15 04:59:13;;;;;;;;;;;;;;;15.60;40.81;102113.19;5078244;28;2611;-47
2023/02/15 05:01:38;;;;;;;;;;;;;;;15.35;41.41;102118.84;5076212;28;1269;-49
2023/02/15 05:04:04;;;;;;;;;;;;;;;15.21;41.54;102127.22;5077934;28;944;-49
2023/02/15 05:06:29;;;;;;;;;;;;;;;16.86;38.34;102116.72;5070570;28;1926;-46
2023/02/15 05:08:55;;;;;;;;;;;;;;;16.75;38.26;102112.91;5065634;28;1131;-48
2023/02/15 05:11:20;;;;;;;;;;;;;;;15.98;39.63;102124.88;5078739;28;1162;-49
2023/02/15 05:13:45;;;;;;;;;;;;;;;15.57;40.68;102119.97;5078354;28;1268;-48
2023/02/15 05:16:11;;;;;;;;;;;;;;;15.80;40.34;102129.38;5075810;28;1250;-50
2023/02/15 05:18:36;;;;;;;;;;;;;;;17.24;37.20;102126.31;5076324;28;1091;-52
2023/02/15 05:21:02;;;;;;;;;;;;;;;16.65;38.29;102138.25;5076929;28;1009;-48
2023/02/15 05:23:27;;;;;;;;;;;;;;;15.97;39.94;102142.41;5078511;28;1051;-51
2023/02/15 05:28:37;;;;;;;;;;;;;;;16.74;38.27;102138.69;5077048;28;913;-47
2023/02/15 05:31:06;;;;;;;;;;;;;;;17.00;37.60;102142.00;5078004;28;1054;-56
2023/02/15 05:33:32;;;;;;;;;;;;;;;16.03;39.55;102150.53;5076538;28;1032;-48
2023/02/15 05:35:57;;;;;;;;;;;;;;;15.70;40.28;102157.34;5077212;28;1244;-53
2023/02/15 05:38:23;;;;;;;;;;;;;;;15.46;40.59;102161.91;5076645;28;1316;-52
2023/02/15 05:40:48;;;;;;;;;;;;;;;16.20;39.28;102171.78;5076553;28;949;-53
2023/02/15 05:43:13;;;;;;;;;;;;;;;17.42;36.82;102163.75;5076816;28;1541;-51
2023/02/15 05:45:39;;;;;;;;;;;;;;;16.49;38.53;102180.97;5077572;28;1113;-49
2023/02/15 05:48:04;;;;;;;;;;;;;;;15.94;39.77;102173.06;5078117;28;1905;-52
2023/02/15 05:50:30;;;;;;;;;;;;;;;15.62;40.55;102185.06;5077916;28;1116;-54
2023/02/15 05:52:58;;;;;;;;;;;;;;;15.39;41.03;102189.41;5077097;28;845;-54
2023/02/15 05:55:24;;;;;;;;;;;;;;;16.64;38.42;102185.19;5077898;28;1011;-51
2023/02/15 05:57:49;;;;;;;;;;;;;;;17.05;37.14;102186.91;5077316;28;1062;-53
2023/02/15 06:00:15;;;;;;;;;;;;;;;16.06;39.43;102182.97;5077379;28;1090;-48
2023/02/15 06:02:40;;;;;;;;;;;;;;;15.66;40.20;102194.50;5077143;28;1093;-46
2023/02/15 06:05:06;;;;;;;;;;;;;;;15.57;40.67;102198.63;5077142;28;997;-44
2023/02/15 06:07:31;;;;;;;;;;;;;;;17.16;37.35;102196.22;5077366;28;1956;-43
2023/02/15 06:09:57;;;;;;;;;;;;;;;16.83;38.12;102202.34;5077842;28;1022;-51
2023/02/15 06:12:22;;;;;;;;;;;;;;;16.03;39.48;102204.56;5077313;28;1075;-47
2023/02/15 06:14:48;;;;;;;;;;;;;;;15.65;40.51;102197.50;5077297;28;1023;-42
2023/02/15 06:17:13;;;;;;;;;;;;;;;16.70;38.41;102204.25;5076846;28;944;-46
2023/02/15 06:19:38;;;;;;;;;;;;;;;16.04;39.20;102204.31;5077239;28;1206;-54
2023/02/15 06:22:04;;;;;;;;;;;;;;;15.89;39.91;102206.66;5075387;28;1335;-49
2023/02/15 06:24:29;;;;;;;;;;;;;;;16.99;37.40;102206.31;5075401;28;1321;-45
2023/02/15 06:26:55;;;;;;;;;;;;;;;15.85;39.63;102221.91;5076986;28;1971;-50
2023/02/15 06:29:20;;;;;;;;;;;;;;;17.62;36.51;102218.31;5076972;28;1018;-52
2023/02/15 06:31:45;;;;;;;;;;;;;;;16.60;38.26;102215.84;5076619;28;1128;-52
2023/02/15 06:34:11;;;;;;;;;;;;;;;15.94;39.77;102223.25;5076554;28;1058;-44
2023/02/15 06:36:36;;;;;;;;;;;;;;;16.14;39.40;102222.13;5075396;28;1355;-52
2023/02/15 06:39:02;;;;;;;;;;;;;;;16.23;39.07;102209.75;5075940;28;1399;-45
2023/02/15 06:41:28;;;;;;;;;;;;;;;16.52;38.64;102218.13;5076565;28;1209;-46
2023/02/15 06:43:53;;;;;;;;;;;;;;;17.92;35.86;102220.84;5071162;28;1210;-46
2023/02/15 06:46:19;;;;;;;;;;;;;;;16.32;38.78;102216.53;5076412;28;1967;-44
2023/02/15 06:48:44;;;;;;;;;;;;;;;16.85;38.02;102220.25;5076792;28;1210;-48
2023/02/15 06:51:09;;;;;;;;;;;;;;;16.88;37.63;102221.69;5075956;28;1229;-45
2023/02/15 06:53:35;;;;;;;;;;;;;;;16.03;39.51;102221.88;5076397;28;1242;-52
2023/02/15 06:56:06;;;;;;;;;;;;;;;18.05;35.69;102227.94;5072539;28;999;-47
2023/02/15 06:58:40;;;;;;;;;;;;;;;16.62;38.12;102221.13;5076596;28;1105;-52
2023/02/15 07:01:06;;;;;;;;;;;;;;;16.42;39.12;102224.19;5076578;28;1119;-47
2023/02/15 07:03:31;;;;;;;;;;;;;;;16.91;37.63;102233.09;5076286;28;1095;-53
2023/02/15 07:05:57;;;;;;;;;;;;;;;16.36;39.22;102227.91;5076054;28;1186;-49
2023/02/15 07:08:23;;;;;;;;;;;;;;;18.26;35.47;102228.31;5076642;28;1914;-46
2023/02/15 07:10:48;;;;;;;;;;;;;;;16.91;37.90;102229.47;5076432;28;1094;-52
2023/02/15 07:13:14;;;;;;;;;;;;;;;16.21;39.14;102242.06;5075658;28;1145;-50
2023/02/15 07:15:39;;;;;;;;;;;;;;;15.92;39.69;102236.38;5073112;28;1206;-46
2023/02/15 07:18:05;;;;;;;;;;;;;;;16.79;37.89;102245.09;5068059;28;1040;-43
2023/02/15 07:20:30;;;;;;;;;;;;;;;15.96;39.86;102243.06;5075190;28;1078;-47
2023/02/15 07:22:55;;;;;;;;;;;;;;;17.95;35.91;102247.88;5076990;28;1039;-42
2023/02/15 07:25:21;;;;;;;;;;;;;;;16.88;37.67;102254.66;5075089;28;1043;-46
2023/02/15 07:27:46;;;;;;;;;;;;;;;16.50;38.64;102251.31;5075802;28;1914;-44
2023/02/15 07:30:13;;;;;;;;;;;;;;;17.73;36.29;102250.44;5074595;28;1088;-46
2023/02/15 07:33:22;;;;;;;;;;;;;;;16.58;38.56;102247.38;5075879;28;1210;-48
2023/02/15 07:35:24;;;;;;;;;;;;;;;17.68;36.71;102236.56;5075817;28;1271;-47
2023/02/15 07:37:49;;;;;;;;;;;;;;;16.80;38.05;102252.28;5076524;28;1229;-47
2023/02/15 07:40:15;;;;;;;;;;;;;;;17.30;37.18;102240.78;5076091;28;1039;-52
2023/02/15 07:42:40;;;;;;;;;;;;;;;18.05;35.66;102246.41;5075817;28;1086;-46
2023/02/15 07:45:06;;;;;;;;;;;;;;;16.75;38.28;102242.84;5076334;28;1073;-49
2023/02/15 07:47:31;;;;;;;;;;;;;;;17.38;37.20;102237.66;5076163;28;1914;-49
2023/02/15 07:49:57;;;;;;;;;;;;;;;17.04;37.77;102245.72;5076001;28;1138;-50
2023/02/15 07:52:22;;;;;;;;;;;;;;;16.39;38.80;102233.72;5075946;28;1074;-56
2023/02/15 07:54:47;;;;;;;;;;;;;;;16.81;38.29;102248.47;5073577;28;1629;-49
2023/02/15 07:57:13;;;;;;;;;;;;;;;16.84;37.78;102246.06;5076271;28;1301;-47
2023/02/15 07:59:38;;;;;;;;;;;;;;;16.22;39.34;102244.56;5076185;28;1162;-46
2023/02/15 08:02:05;;;;;;;;;;;;;;;18.04;35.66;102240.03;5075734;28;1185;-52
2023/02/15 08:04:30;;;;;;;;;;;;;;;16.79;38.25;102243.22;5078161;28;1039;-53
2023/02/15 08:06:56;;;;;;;;;;;;;;;16.26;39.39;102236.72;5079442;28;1906;-58
2023/02/15 08:09:21;;;;;;;;;;;;;;;17.44;36.92;102242.16;5079834;28;1058;-51
2023/02/15 08:11:47;;;;;;;;;;;;;;;16.48;38.87;102239.75;5079970;28;1160;-53
2023/02/15 08:14:13;;;;;;;;;;;;;;;17.81;36.05;102240.13;5079385;28;1151;-54
2023/02/15 08:16:39;;;;;;;;;;;;;;;17.71;36.20;102241.63;5077465;28;1395;-55
2023/02/15 08:19:06;;;;;;;;;;;;;;;16.68;38.47;102250.38;5079408;28;1174;-47
2023/02/15 08:21:32;;;;;;;;;;;;;;;16.19;39.47;102252.44;5078269;28;1039;-60
2023/02/15 08:23:58;;;;;;;;;;;;;;;17.76;36.23;102244.44;5079493;28;1094;-49
2023/02/15 08:26:23;;;;;;;;;;;;;;;16.56;38.36;102246.78;5078940;28;1909;-53
2023/02/15 08:28:50;;;;;;;;;;;;;;;16.60;38.68;102248.78;5079150;28;1101;-57
2023/02/15 08:31:15;;;;;;;;;;;;;;;17.23;36.96;102234.56;5079726;28;1039;-52
2023/02/15 08:33:41;;;;;;;;;;;;;;;16.40;38.76;102249.13;5079158;28;1058;-54
2023/02/15 08:36:10;;;;;;;;;;;;;;;17.23;37.20;102251.06;5078934;28;1147;-52
2023/02/15 08:38:36;;;;;;;;;;;;;;;16.49;38.72;102243.31;5079412;28;1089;-60
2023/02/15 08:41:15;;;;;;;;;;;;;;;16.03;39.75;102253.94;5084602;28;1029;-58
2023/02/15 08:43:41;;;;;;;;;;;;;;;16.97;37.50;102247.78;5078833;28;1176;-57
2023/02/15 08:46:06;;;;;;;;;;;;;;;16.17;39.44;102260.06;5079144;28;1058;-63
2023/02/15 08:48:32;;;;;;;;;;;;;;;18.08;35.54;102265.97;5078927;28;1976;-58
2023/02/15 08:50:57;;;;;;;;;;;;;;;16.87;37.87;102263.97;5078829;28;1117;-58
2023/02/15 08:53:23;;;;;;;;;;;;;;;16.41;38.72;102256.31;5073252;28;1262;-59
2023/02/15 08:55:57;;;;;;;;;;;;;;;17.73;36.40;102263.38;5072379;28;1074;-59
2023/02/15 08:58:23;;;;;;;;;;;;;;;16.55;38.52;102261.56;5058604;28;1096;-60
2023/02/15 09:00:48;;;;;;;;;;;;;;;16.15;39.39;102254.00;5075855;28;1031;-60
2023/02/15 09:03:14;;;;;;;;;;;;;;;17.14;37.07;102242.38;5078980;28;1054;-60
2023/02/15 09:05:39;;;;;;;;;;;;;;;16.22;39.09;102257.47;5078216;28;1178;-60
2023/02/15 09:08:04;;;;;;;;;;;;;;;18.10;35.35;102232.69;5078373;28;1902;-54
2023/02/15 09:10:30;;;;;;;;;;;;;;;17.02;37.50;102233.31;5079101;28;1098;-58
2023/02/15 09:12:55;;;;;;;;;;;;;;;16.58;38.63;102233.66;5078282;28;1110;-60
2023/02/15 09:15:21;;;;;;;;;;;;;;;17.79;36.06;102235.72;5078749;28;1178;-64
2023/02/15 09:17:46;;;;;;;;;;;;;;;16.72;37.91;102240.56;5078159;28;1039;-63
2023/02/15 09:20:12;;;;;;;;;;;;;;;17.89;36.09;102242.47;5078384;28;1111;-63
2023/02/15 09:22:37;;;;;;;;;;;;;;;17.23;36.71;102240.06;5078257;28;1133;-63
2023/02/15 09:25:03;;;;;;;;;;;;;;;16.63;38.05;102241.16;5070992;28;1323;-57
2023/02/15 09:27:29;;;;;;;;;;;;;;;17.54;36.65;102236.03;5077034;28;1906;-55
2023/02/15 09:29:54;;;;;;;;;;;;;;;16.61;38.31;102246.91;5077496;28;1115;-56
2023/02/15 09:32:20;;;;;;;;;;;;;;;17.06;37.62;102235.31;5078313;28;920;-56
2023/02/15 09:34:45;;;;;;;;;;;;;;;17.40;36.72;102246.50;5079671;28;1034;-54
2023/02/15 09:37:10;;;;;;;;;;;;;;;16.55;38.23;102234.97;5074093;28;1308;-54
2023/02/15 09:39:38;;;;;;;;;;;;;;;16.39;38.80;102224.66;5076770;28;1246;-58
2023/02/15 09:42:22;;;;;;;;;;;;;;;16.83;37.74;102218.81;5077346;28;1281;-47
2023/02/15 09:45:17;;;;;;;;;;;;;;;17.13;37.26;102226.94;5081839;28;1130;-56
2023/02/15 09:47:45;;;;;;;;;;;;;;;17.84;35.74;102225.88;5068482;28;1910;-54
2023/02/15 09:50:26;;;;;;;;;;;;;;;16.69;37.94;102230.06;5077948;28;1090;-48
2023/02/15 09:52:52;;;;;;;;;;;;;;;16.63;38.36;102236.50;5078047;28;1058;-47
2023/02/15 09:55:23;;;;;;;;;;;;;;;16.98;37.39;102232.13;5078063;28;1165;-51
2023/02/15 09:57:55;;;;;;;;;;;;;;;16.37;38.78;102216.69;5077599;28;1143;-54
2023/02/15 10:00:35;;;;;;;;;;;;;;;16.98;37.84;102212.88;5077656;28;1119;-53
2023/02/15 10:03:04;;;;;;;;;;;;;;;16.66;38.14;102221.47;5077425;28;1193;-57
2023/02/15 10:05:39;;;;;;;;;;;;;;;16.10;39.06;102216.25;5069588;28;1183;-55
2023/02/15 10:08:09;;;;;;;;;;;;;;;17.37;36.63;102191.97;5077182;28;2046;-53
2023/02/15 10:10:54;;;;;;;;;;;;;;;16.33;38.81;102210.00;5058875;28;1137;-50
2023/02/15 10:13:28;;;;;;;;;;;;;;;17.18;37.27;102221.56;5077655;28;1090;-53
2023/02/15 10:16:14;;;;;;;;;;;;;;;16.68;37.99;102211.91;5077443;28;1122;-55
2023/02/15 10:18:46;;;;;;;;;;;;;;;16.11;39.00;102222.59;5069320;28;1349;-55
2023/02/15 10:21:40;;;;;;;;;;;;;;;16.66;38.16;102208.59;5076878;28;1051;-56
2023/02/15 10:24:37;;;;;;;;;;;;;;;16.47;38.19;102210.59;5054037;28;1091;-51
2023/02/15 10:27:12;;;;;;;;;;;;;;;15.92;39.27;102203.44;5044735;28;1913;-56
2023/02/15 10:29:38;;;;;;;;;;;;;;;17.25;36.69;102210.41;5073318;28;1297;-54
2023/02/15 10:32:36;;;;;;;;;;;;;;;16.64;38.19;102207.97;5077165;28;1018;-56
2023/02/15 10:35:04;;;;;;;;;;;;;;;18.64;34.25;102199.97;5048285;28;1261;-55
2023/02/15 10:37:38;;;;;;;;;;;;;;;16.98;37.10;102210.13;5059380;28;1328;-57
2023/02/15 10:40:15;;;;;;;;;;;;;;;16.38;38.40;102195.53;5076817;28;1158;-45
2023/02/15 10:42:43;;;;;;;;;;;;;;;16.16;38.99;102198.88;5060601;28;1013;-56
2023/02/15 10:45:21;;;;;;;;;;;;;;;17.13;36.75;102195.88;5077090;28;1198;-55
2023/02/15 10:47:46;;;;;;;;;;;;;;;16.43;38.51;102199.25;5075105;28;1985;-47
2023/02/15 10:50:11;;;;;;;;;;;;;;;18.39;34.70;102194.09;5076694;28;1047;-54
2023/02/15 10:52:46;;;;;;;;;;;;;;;17.08;37.06;102189.22;5076995;28;1079;-54
2023/02/15 10:55:21;;;;;;;;;;;;;;;16.48;38.38;102190.31;5076657;28;973;-54
2023/02/15 10:58:05;;;;;;;;;;;;;;;17.60;36.15;102181.97;5076672;28;1237;-51
2023/02/15 11:00:33;;;;;;;;;;;;;;;16.44;38.34;102189.13;5075616;28;1328;-54
2023/02/15 11:03:20;;;;;;;;;;;;;;;16.49;38.49;102191.13;5076542;28;1016;-46
2023/02/15 11:06:01;;;;;;;;;;;;;;;16.50;37.99;102193.63;5108781;28;1034;-46
2023/02/15 11:08:27;;;;;;;;;;;;;;;16.99;37.64;102187.91;5065697;28;1909;-46
2023/02/15 11:10:52;;;;;;;;;;;;;;;17.67;35.83;102179.91;5074623;28;1147;-46
2023/02/15 11:13:18;;;;;;;;;;;;;;;16.56;37.95;102189.09;5076754;28;1209;-49
2023/02/15 11:15:44;;;;;;;;;;;;;;;17.85;35.90;102189.00;5075052;28;1038;-48
2023/02/15 11:18:10;;;;;;;;;;;;;;;17.01;37.29;102183.00;5076445;28;1043;-47
2023/02/15 11:20:35;;;;;;;;;;;;;;;16.43;38.38;102190.19;5076113;28;1038;-51
2023/02/15 11:23:00;;;;;;;;;;;;;;;17.64;36.05;102185.06;5076117;28;1002;-48
2023/02/15 11:25:28;;;;;;;;;;;;;;;16.65;37.95;102179.44;5076298;28;1066;-48
2023/02/15 11:27:54;;;;;;;;;;;;;;;16.31;38.67;102179.19;5075102;28;1976;-51
2023/02/15 11:30:20;;;;;;;;;;;;;;;17.37;36.52;102191.97;5075982;28;1151;-45
2023/02/15 11:32:51;;;;;;;;;;;;;;;16.52;38.19;102187.91;5075689;28;1114;-47
2023/02/15 11:35:42;;;;;;;;;;;;;;;16.08;38.89;102180.81;5076325;28;1087;-48
2023/02/15 11:38:16;;;;;;;;;;;;;;;16.72;37.85;102185.63;5075309;28;1230;-48
2023/02/15 11:40:48;;;;;;;;;;;;;;;16.92;37.30;102177.03;5080780;28;1263;-52
2023/02/15 11:43:18;;;;;;;;;;;;;;;16.96;37.27;102174.66;5079434;28;1163;-48
2023/02/15 11:45:44;;;;;;;;;;;;;;;18.45;34.39;102174.66;5078667;28;1347;-48
2023/02/15 11:48:11;;;;;;;;;;;;;;;16.92;37.39;102168.78;5078773;28;1968;-48
2023/02/15 11:50:36;;;;;;;;;;;;;;;16.41;38.49;102179.44;5079158;28;1051;-50
2023/02/15 11:53:15;;;;;;;;;;;;;;;16.92;37.16;102159.72;5079964;28;1101;-52
2023/02/15 11:55:44;;;;;;;;;;;;;;;16.30;38.43;102165.69;5078331;28;906;-48
2023/02/15 11:58:09;;;;;;;;;;;;;;;17.40;36.67;102152.16;5079115;28;1011;-53
2023/02/15 12:00:39;;;;;;;;;;;;;;;16.48;38.32;102148.28;5079957;28;1054;-47
2023/02/15 12:03:21;;;;;;;;;;;;;;;16.01;39.29;102160.91;5079459;28;1075;-48
2023/02/15 12:05:47;;;;;;;;;;;;;;;16.98;37.06;102145.00;5078525;28;1195;-49
2023/02/15 12:08:17;;;;;;;;;;;;;;;16.21;38.66;102156.97;5079980;28;1914;-49
2023/02/15 12:11:02;;;;;;;;;;;;;;;17.09;37.01;102149.63;5079619;28;1078;-50
2023/02/15 12:13:28;;;;;;;;;;;;;;;16.41;38.29;102146.50;5080105;28;1023;-47
2023/02/15 12:15:54;;;;;;;;;;;;;;;16.13;38.87;102157.31;5079659;28;1105;-50
2023/02/15 12:18:21;;;;;;;;;;;;;;;17.21;36.64;102146.84;5078227;28;1137;-51
2023/02/15 12:20:47;;;;;;;;;;;;;;;16.28;38.49;102151.38;5078653;28;1222;-47
2023/02/15 12:23:12;;;;;;;;;;;;;;;18.02;35.21;102142.28;5111987;28;1059;-49
2023/02/15 12:25:41;;;;;;;;;;;;;;;17.05;36.71;102142.94;5079514;28;1109;-50
2023/02/15 12:28:22;;;;;;;;;;;;;;;16.44;38.18;102139.69;5078265;28;1902;-49
2023/02/15 12:30:47;;;;;;;;;;;;;;;17.62;36.10;102144.88;5078485;28;872;-51
2023/02/15 12:33:13;;;;;;;;;;;;;;;16.56;37.86;102134.19;5078459;28;1202;-47
2023/02/15 12:35:38;;;;;;;;;;;;;;;16.11;38.97;102129.31;5079544;28;1158;-50
2023/02/15 12:38:10;;;;;;;;;;;;;;;17.56;36.20;102134.06;5079469;28;1031;-50
2023/02/15 12:40:35;;;;;;;;;;;;;;;16.45;38.30;102135.03;5078904;28;1178;-49
2023/02/15 12:43:08;;;;;;;;;;;;;;;16.10;38.79;102138.59;5077814;28;1055;-47
2023/02/15 12:45:34;;;;;;;;;;;;;;;17.24;36.41;102127.13;5077856;28;1043;-51
2023/02/15 12:48:11;;;;;;;;;;;;;;;16.35;38.53;102135.63;5078624;28;1971;-51
2023/02/15 12:50:37;;;;;;;;;;;;;;;17.65;35.88;102121.53;5078748;28;1158;-49
2023/02/15 12:53:24;;;;;;;;;;;;;;;16.83;37.39;102130.91;5078843;28;1106;-50
2023/02/15 12:55:50;;;;;;;;;;;;;;;18.16;34.96;102127.13;5072543;28;1336;-49
2023/02/15 12:58:21;;;;;;;;;;;;;;;17.95;35.29;102124.03;5070878;28;1230;-49
2023/02/15 13:00:47;;;;;;;;;;;;;;;16.95;37.25;102123.50;5071842;28;1034;-54
2023/02/15 13:03:19;;;;;;;;;;;;;;;16.50;38.05;102126.91;5079016;28;1074;-51
2023/02/15 13:05:46;;;;;;;;;;;;;;;16.21;38.47;102118.56;5078427;28;1127;-56
2023/02/15 13:08:11;;;;;;;;;;;;;;;17.36;36.64;102123.47;5077360;28;1906;-48
2023/02/15 13:10:39;;;;;;;;;;;;;;;16.64;37.51;102111.84;5078500;28;1105;-50